EGHH

Bournemouth Airport

Airport
ICAO code
EGHH
IATA Code
BOH
Summary
ICAO Region
EUR
ICAO Territory
Location

Hurn, Dorset, England

Serving
Bournemouth
Elevation
38 ft
Coordinates
50° 46' 48" N , 1° 50' 33" W
KCC
Metar
Observation
EGHH 071750Z 26006KT 9999 FEW043 14/12 Q1017
Station
Bournemouth Airport
Date/Time
2022-10-07 17:50:00
Wind direction
260°
Wind speed
06 kts
Lowest cloud amount
few clouds
Temperature
14°C
Dew point
12°C
Humidity
87%
QNH
1017 hPa
Weather condition
n/a

Description

A small international airport serving the area around the city of Bournemouth.

Climatology

Temperate Marine climate/Oceanic climate (Köppen climate classification Cfb). Moderately cool summer and comparatively warm winter with a mean temperature range of only 14°C. Prevailing south-westerly winds.

Runways

Designator Length Width Surface Rops
8/26 2271 46 ASP Yes/Yes

SKYbrary Partners:

Safety knowledge contributed by: